Time;durP1;ratioP1;P1;durP2;ratioP2;P2;SDS_P1;SDS_P2;PMS_P1;PMS_P2;Temp;Humidity;BMP_temperature;BMP_pressure;BME280_temperature;BME280_humidity;BME280_pressure;Samples;Min_cycle;Max_cycle;Signal;HPM_P1;HPM_P2
2021/04/14 00:00:53;;;;;;;20.17;5.60;;;;;;;5.03;63.73;101604.27;4791500;60;1136413;-75
2021/04/14 00:06:19;;;;;;;16.67;6.10;;;;;;;5.10;63.82;101601.34;4848745;59;1139334;-75
2021/04/14 00:11:44;;;;;;;16.70;6.25;;;;;;;5.18;64.02;101594.52;4895906;59;1136583;-74
2021/04/14 00:17:10;;;;;;;18.67;6.53;;;;;;;5.18;63.98;101578.78;4895864;59;1136430;-75
2021/04/14 00:22:35;;;;;;;19.82;6.15;;;;;;;5.08;63.88;101588.74;4895673;59;1136254;-72
2021/04/14 00:28:01;;;;;;;11.53;4.03;;;;;;;5.02;64.04;101592.92;4895723;59;1136314;-73
2021/04/14 00:33:26;;;;;;;15.97;4.77;;;;;;;4.98;64.33;101582.14;4895429;59;1136301;-74
2021/04/14 00:38:52;;;;;;;10.67;4.43;;;;;;;4.86;64.36;101587.40;4895786;59;1136324;-77
2021/04/14 00:44:19;;;;;;;15.50;4.97;;;;;;;4.80;64.65;101572.34;4895470;59;1136491;-73
2021/04/14 00:49:48;;;;;;;13.28;5.47;;;;;;;4.69;64.83;101571.88;4895778;59;1136443;-72
2021/04/14 00:55:17;;;;;;;16.60;4.17;;;;;;;4.69;64.83;101571.88;4895710;59;1136501;-76
2021/04/14 01:00:50;;;;;;;13.62;3.85;;;;;;;4.73;65.10;101578.28;4895634;59;1136455;-72
2021/04/14 01:06:23;;;;;;;12.78;4.95;;;;;;;4.62;65.22;101583.03;4904611;59;1136445;-76
2021/04/14 01:11:48;;;;;;;6.63;2.43;;;;;;;4.58;65.44;101581.45;4938251;58;1136348;-73
2021/04/14 01:17:13;;;;;;;11.63;3.23;;;;;;;4.51;65.64;101576.88;4937856;58;1134591;-72
2021/04/14 01:22:39;;;;;;;13.30;5.03;;;;;;;4.45;65.72;101584.08;4938357;58;1136607;-75
2021/04/14 01:28:12;;;;;;;14.33;5.22;;;;;;;4.36;66.04;101581.34;4938162;58;1136526;-71
2021/04/14 01:33:38;;;;;;;6.03;2.33;;;;;;;4.23;66.49;101591.84;4938683;58;1136494;-74
2021/04/14 01:39:06;;;;;;;9.57;2.77;;;;;;;4.15;66.97;101580.76;4938400;58;1134276;-72
2021/04/14 01:44:31;;;;;;;8.70;2.90;;;;;;;4.10;67.37;101571.77;4938694;58;1134404;-75
2021/04/14 01:49:55;;;;;;;8.63;2.77;;;;;;;4.03;67.53;101568.09;4938387;58;1134109;-72
2021/04/14 01:55:21;;;;;;;8.57;2.80;;;;;;;4.07;67.85;101568.41;4938455;58;1134252;-75
2021/04/14 02:00:55;;;;;;;12.23;4.05;;;;;;;4.05;67.83;101563.66;4938537;58;1134214;-72
2021/04/14 02:06:19;;;;;;;10.57;3.07;;;;;;;4.02;67.86;101557.22;4938128;58;1136240;-74
2021/04/14 02:11:45;;;;;;;8.55;2.35;;;;;;;4.02;67.95;101559.84;4897203;58;1136190;-74
2021/04/14 02:17:10;;;;;;;8.00;3.37;;;;;;;4.04;67.88;101556.27;4896162;59;1134398;-75
2021/04/14 02:22:36;;;;;;;8.10;3.00;;;;;;;4.10;68.03;101557.83;4896341;59;1141826;-72
2021/04/14 02:28:01;;;;;;;11.30;4.00;;;;;;;4.10;67.91;101546.91;4896087;59;1134271;-73
2021/04/14 02:33:27;;;;;;;6.47;2.20;;;;;;;4.01;68.00;101551.13;4896009;59;1136580;-74
2021/04/14 02:38:52;;;;;;;9.90;2.70;;;;;;;3.91;68.26;101547.12;4896165;59;1134816;-74
2021/04/14 02:44:18;;;;;;;11.27;2.93;;;;;;;3.86;68.46;101548.58;4896048;59;1134503;-76
2021/04/14 02:49:43;;;;;;;10.72;3.35;;;;;;;3.78;68.76;101546.68;4896183;59;1136457;-73
2021/04/14 02:55:11;;;;;;;5.53;2.40;;;;;;;3.74;68.86;101550.30;4896010;59;1136430;-74
2021/04/14 03:00:37;;;;;;;12.98;3.25;;;;;;;3.73;69.16;101551.65;4896173;59;1143969;-72
2021/04/14 03:06:03;;;;;;;19.50;4.17;;;;;;;3.78;69.37;101544.52;4895837;59;1136269;-75
2021/04/14 03:11:28;;;;;;;5.87;2.83;;;;;;;3.78;69.29;101547.98;4835404;58;1136919;-72
2021/04/14 03:16:54;;;;;;;7.08;2.10;;;;;;;3.77;69.35;101537.57;4792169;60;1134301;-71
2021/04/14 03:22:20;;;;;;;10.17;4.50;;;;;;;3.76;69.41;101531.94;4792287;60;1134353;-72
2021/04/14 03:27:45;;;;;;;11.75;2.47;;;;;;;3.67;69.77;101543.54;4792065;60;1136475;-75
2021/04/14 03:33:11;;;;;;;12.30;4.77;;;;;;;3.64;70.10;101541.50;4801230;59;1136409;-73
2021/04/14 03:38:36;;;;;;;15.40;4.67;;;;;;;3.63;69.82;101547.19;4832636;59;1136425;-75
2021/04/14 03:44:01;;;;;;;9.07;3.73;;;;;;;3.62;69.92;101548.09;4848535;59;1136454;-73
2021/04/14 03:49:27;;;;;;;9.53;3.53;;;;;;;3.62;70.01;101550.70;4840969;60;1134406;-76
2021/04/14 03:54:53;;;;;;;8.15;2.83;;;;;;;3.57;70.11;101545.20;4841278;60;1134237;-73
2021/04/14 04:00:19;;;;;;;17.47;4.93;;;;;;;3.55;70.22;101550.48;4862712;59;1134899;-73
2021/04/14 04:05:46;;;;;;;12.70;3.93;;;;;;;3.45;70.40;101547.77;4877622;59;1136492;-74
2021/04/14 04:11:11;;;;;;;8.00;3.10;;;;;;;3.44;70.50;101548.67;4898794;58;1136446;-74
2021/04/14 04:16:37;;;;;;;7.72;3.35;;;;;;;3.39;70.65;101551.87;4950883;58;1134340;-77
2021/04/14 04:22:02;;;;;;;10.83;4.00;;;;;;;3.37;70.78;101551.06;4938675;58;1134358;-71
2021/04/14 04:27:26;;;;;;;18.06;4.86;;;;;;;3.26;71.05;101551.41;4951441;58;1136524;-76
2021/04/14 04:32:52;;;;;;;13.23;3.77;;;;;;;3.15;71.69;101552.19;4943783;58;1136710;-74
2021/04/14 04:38:18;;;;;;;14.20;4.60;;;;;;;3.10;71.90;101558.00;4920965;58;1136241;-74
2021/04/14 04:43:43;;;;;;;12.43;4.67;;;;;;;3.04;72.04;101561.67;4921125;58;1136447;-73
2021/04/14 04:49:08;;;;;;;21.00;7.30;;;;;;;3.03;72.19;101560.41;4920973;59;1136358;-73
2021/04/14 04:54:35;;;;;;;12.67;5.77;;;;;;;3.02;72.42;101562.61;4921410;59;1136758;-72
2021/04/14 05:00:00;;;;;;;19.23;6.30;;;;;;;3.05;72.56;101567.30;4921548;59;1136307;-71
2021/04/14 05:05:29;;;;;;;6.87;3.40;;;;;;;3.06;72.69;101566.38;4921552;58;1136783;-74
2021/04/14 05:10:56;;;;;;;12.93;4.90;;;;;;;3.05;73.53;101568.61;4921572;59;1134505;-75
2021/04/14 05:16:21;;;;;;;13.50;4.73;;;;;;;2.97;73.42;101574.50;4876760;58;1136446;-73
2021/04/14 05:21:47;;;;;;;17.60;4.10;;;;;;;2.94;73.80;101574.58;4872093;58;1136918;-74
2021/04/14 05:27:13;;;;;;;13.57;5.10;;;;;;;2.92;73.99;101578.13;4872154;58;1136469;-72
2021/04/14 05:32:38;;;;;;;12.98;5.40;;;;;;;2.93;74.07;101585.08;4869735;58;1138217;-73
2021/04/14 05:38:03;;;;;;;7.50;3.47;;;;;;;2.92;74.24;101572.46;4914522;59;1136596;-73
2021/04/14 05:43:35;;;;;;;14.70;5.07;;;;;;;2.95;74.42;101577.60;4918028;59;1134889;-70
2021/04/14 05:49:00;;;;;;;13.90;5.17;;;;;;;2.97;74.67;101585.41;4917795;59;1136618;-74
2021/04/14 05:54:24;;;;;;;11.03;4.83;;;;;;;2.98;74.70;101590.59;4917724;59;1136452;-74
2021/04/14 05:59:50;;;;;;;16.23;5.85;;;;;;;3.09;75.38;101593.73;4918097;59;1136308;-73
2021/04/14 06:05:19;;;;;;;22.73;8.07;;;;;;;3.10;75.09;101588.91;4899096;59;1136734;-71
2021/04/14 06:10:44;;;;;;;12.30;4.05;;;;;;;3.16;75.05;101588.74;4850369;58;1136708;-74
2021/04/14 06:16:11;;;;;;;17.60;5.13;;;;;;;3.20;75.40;101585.59;4953183;57;1136641;-74
2021/04/14 06:21:36;;;;;;;19.53;6.10;;;;;;;3.25;75.24;101584.98;5020230;57;1136770;-74
2021/04/14 06:27:05;;;;;;;15.80;6.53;;;;;;;3.30;75.56;101577.86;5018841;56;1136607;-76
2021/04/14 06:32:28;;;;;;;9.43;3.70;;;;;;;3.39;75.79;101575.41;5015281;57;1136843;-73
2021/04/14 06:37:53;;;;;;;9.87;3.67;;;;;;;3.51;76.14;101574.56;5017819;57;1134580;-73
2021/04/14 06:43:46;;;;;;;16.73;5.87;;;;;;;3.68;76.11;101585.80;5018909;57;1134644;-74
2021/04/14 06:49:19;;;;;;;13.07;4.10;;;;;;;3.69;75.65;101578.36;5017094;57;1136902;-77
2021/04/14 06:55:15;;;;;;;10.22;5.78;;;;;;;3.79;75.62;101584.17;5016923;57;1136856;-75
2021/04/14 07:00:48;;;;;;;10.43;3.42;;;;;;;3.89;75.84;101581.64;5018628;57;1136619;-74
2021/04/14 07:06:17;;;;;;;10.70;3.67;;;;;;;3.94;75.92;101586.73;5017585;57;1136683;-77
2021/04/14 07:11:44;;;;;;;10.20;3.70;;;;;;;4.03;75.89;101585.96;5020772;57;1136750;-76
2021/04/14 07:17:25;;;;;;;14.47;5.17;;;;;;;4.08;75.79;101585.81;4978196;57;1136695;-74
2021/04/14 07:22:59;;;;;;;23.50;6.65;;;;;;;4.14;75.79;101587.75;4921242;59;1136708;-75
2021/04/14 07:29:04;;;;;;;19.93;5.03;;;;;;;4.16;75.50;101579.41;4918108;58;1136665;-74
2021/04/14 07:34:42;;;;;;;7.00;2.93;;;;;;;4.18;75.49;101584.59;4917874;59;1136592;-76
2021/04/14 07:40:30;;;;;;;15.57;5.57;;;;;;;4.26;75.96;101581.27;4918767;58;1134892;-76
2021/04/14 07:45:55;;;;;;;11.37;3.37;;;;;;;4.37;75.66;101586.98;4916882;57;1136875;-79
2021/04/14 07:51:22;;;;;;;18.97;4.57;;;;;;;4.41;75.51;101587.28;4917396;59;1136746;-75
2021/04/14 07:56:56;;;;;;;9.53;4.77;;;;;;;4.45;75.43;101586.24;4881933;58;1136999;-74
2021/04/14 08:02:33;;;;;;;14.33;4.72;;;;;;;4.62;75.59;101580.86;4918374;58;1134821;-74
2021/04/14 08:07:59;;;;;;;10.20;3.27;;;;;;;4.80;75.79;101576.27;4918178;58;1137003;-76
2021/04/14 08:13:29;;;;;;;11.93;5.00;;;;;;;5.08;75.69;101570.39;4916554;58;1137125;-75
2021/04/14 08:19:00;;;;;;;7.80;4.67;;;;;;;5.29;74.84;101570.03;4923543;58;1137051;-73
2021/04/14 08:24:32;;;;;;;12.60;4.33;;;;;;;5.45;74.45;101566.34;4839484;58;1134425;-73
2021/04/14 08:30:09;;;;;;;34.10;8.07;;;;;;;5.61;73.43;101574.01;4780891;58;1136982;-74
2021/04/14 08:35:38;;;;;;;10.03;3.13;;;;;;;5.82;73.16;101576.20;4926468;58;1136616;-75
2021/04/14 08:41:06;;;;;;;11.70;3.90;;;;;;;5.89;70.73;101579.02;4928514;58;1136609;-69
2021/04/14 08:46:37;;;;;;;11.30;4.20;;;;;;;5.89;71.08;101579.88;4927505;58;1136625;-70
2021/04/14 08:52:00;;;;;;;15.53;5.60;;;;;;;5.90;69.37;101567.59;4927307;57;1136691;-72
2021/04/14 08:57:26;;;;;;;11.93;4.00;;;;;;;6.02;70.73;101567.54;4928890;58;1136657;-71
2021/04/14 09:02:56;;;;;;;13.13;3.97;;;;;;;6.21;69.33;101564.08;4928308;58;1136478;-74
2021/04/14 09:08:25;;;;;;;15.07;6.10;;;;;;;6.38;68.08;101559.41;4926969;58;1136700;-74
2021/04/14 09:14:01;;;;;;;3.67;1.65;;;;;;;6.48;67.30;101548.03;4926293;57;1136817;-74
2021/04/14 09:19:28;;;;;;;5.57;2.63;;;;;;;6.70;66.54;101552.27;4917141;58;1134607;-74
2021/04/14 09:25:09;;;;;;;5.03;2.25;;;;;;;6.95;67.37;101546.73;5007128;57;1134418;-74
2021/04/14 09:30:57;;;;;;;5.57;2.30;;;;;;;7.15;66.04;101541.87;4971234;58;1134391;-75
2021/04/14 09:36:44;;;;;;;9.23;2.57;;;;;;;7.23;63.33;101533.14;4974488;58;1134587;-71
2021/04/14 09:42:01;;;;;;;3.43;1.90;;;;;;;7.16;62.28;101536.16;4972224;58;1134473;-74
2021/04/14 09:47:34;;;;;;;4.97;2.07;;;;;;;7.24;62.65;101541.43;4942551;58;1134141;-75
2021/04/14 09:53:09;;;;;;;3.37;2.13;;;;;;;7.30;62.90;101534.57;4887876;58;1134311;-75
2021/04/14 09:58:44;;;;;;;8.18;2.67;;;;;;;7.42;62.93;101534.44;4817848;58;1134178;-74
2021/04/14 10:04:23;;;;;;;9.43;4.13;;;;;;;7.51;62.82;101527.86;4825620;58;1134408;-77
2021/04/14 10:09:50;;;;;;;5.65;1.72;;;;;;;7.58;62.20;101536.72;4826304;60;1134389;-76
2021/04/14 10:15:16;;;;;;;2.63;0.73;;;;;;;7.61;61.06;101535.72;4825577;60;1134653;-75
2021/04/14 10:20:41;;;;;;;8.57;2.40;;;;;;;7.57;58.89;101528.89;4943143;58;1134608;-76
2021/04/14 10:26:10;;;;;;;5.13;1.87;;;;;;;7.61;60.79;101530.45;4886664;58;1134519;-76
2021/04/14 10:31:38;;;;;;;5.60;1.30;;;;;;;7.76;59.51;101534.97;4886956;59;1134493;-78
2021/04/14 10:37:22;;;;;;;1.63;1.50;;;;;;;7.76;58.65;101533.18;4886534;58;1134170;-74
2021/04/14 10:42:55;;;;;;;10.25;4.90;;;;;;;7.86;58.20;101530.94;4886647;58;1134447;-75
2021/04/14 10:48:22;;;;;;;8.78;3.25;;;;;;;7.89;57.21;101531.25;4886136;58;1136448;-76
2021/04/14 10:53:50;;;;;;;2.20;1.25;;;;;;;7.96;55.77;101528.67;4886839;58;1134612;-74
2021/04/14 10:59:18;;;;;;;5.10;2.87;;;;;;;7.98;55.26;101525.50;4886158;59;1134528;-77
2021/04/14 11:04:44;;;;;;;21.53;7.93;;;;;;;8.10;57.23;101519.14;4886572;58;1134437;-76
2021/04/14 11:10:17;;;;;;;5.30;2.67;;;;;;;8.30;55.64;101506.25;4865914;59;1136583;-77
2021/04/14 11:15:45;;;;;;;2.00;1.40;;;;;;;8.41;55.63;101506.56;4977059;58;1143557;-76
2021/04/14 11:21:28;;;;;;;10.67;6.57;;;;;;;8.41;53.06;101505.25;4886539;58;1134666;-76
2021/04/14 11:27:00;;;;;;;8.05;5.12;;;;;;;8.48;54.99;101500.52;4866550;59;1136661;-76
2021/04/14 11:32:25;;;;;;;;;;;;;;;8.60;54.04;101509.55;4968652;57;1134459;-76
2021/04/14 11:37:50;;;;;;;2.60;1.40;;;;;;;8.67;54.02;101505.20;4990860;58;971634;-78
2021/04/14 11:43:29;;;;;;;1.77;1.03;;;;;;;8.73;52.31;101496.08;4886491;58;1132513;-74
2021/04/14 11:49:07;;;;;;;2.60;1.65;;;;;;;8.87;48.56;101492.22;4859575;59;1134434;-75
2021/04/14 11:54:36;;;;;;;5.63;4.20;;;;;;;8.86;49.81;101493.16;4965306;58;1134176;-75
2021/04/14 12:00:21;;;;;;;5.23;3.93;;;;;;;8.83;49.81;101497.30;4977198;58;1134261;-77
2021/04/14 12:05:45;;;;;;;;;;;;;;;8.90;50.60;101489.89;4901766;58;1134676;-77
2021/04/14 12:11:21;;;;;;;5.10;2.00;;;;;;;8.91;48.50;101487.16;4912427;59;971838;-75
2021/04/14 12:16:47;;;;;;;5.72;1.32;;;;;;;8.98;49.59;101487.23;4907909;58;1132287;-76
2021/04/14 12:22:14;;;;;;;26.03;9.43;;;;;;;9.19;51.00;101481.20;4905597;58;1134351;-75
2021/04/14 12:27:40;;;;;;;13.27;6.33;;;;;;;9.28;46.86;101475.88;4904579;58;1136470;-76
2021/04/14 12:33:05;;;;;;;9.23;4.50;;;;;;;9.31;47.19;101477.03;4907159;58;1136660;-73
2021/04/14 12:38:29;;;;;;;24.97;8.53;;;;;;;9.39;48.85;101477.43;4907237;58;1134464;-76
2021/04/14 12:43:55;;;;;;;49.85;13.50;;;;;;;9.44;48.38;101486.80;4921480;58;1136484;-77
2021/04/14 12:49:22;;;;;;;28.73;8.23;;;;;;;9.48;48.07;101479.06;4956705;58;1140665;-76
2021/04/14 12:54:56;;;;;;;8.90;2.98;;;;;;;9.56;49.25;101477.31;4965849;58;1138910;-75
2021/04/14 13:00:21;;;;;;;37.83;15.77;;;;;;;9.63;50.12;101475.15;4965460;57;1136641;-76
2021/04/14 13:05:52;;;;;;;68.72;13.48;;;;;;;9.67;49.60;101480.64;4965070;58;1140684;-78
2021/04/14 13:11:21;;;;;;;4.27;2.03;;;;;;;9.63;49.70;101472.50;4965201;58;1140818;-78
2021/04/14 13:16:59;;;;;;;5.90;2.37;;;;;;;9.81;49.14;101474.07;4962338;58;1136561;-72
2021/04/14 13:22:40;;;;;;;31.40;18.43;;;;;;;9.84;48.30;101472.58;4967056;58;1136654;-72
2021/04/14 13:28:13;;;;;;;16.07;9.13;;;;;;;9.70;46.96;101474.72;5017358;57;1140544;-76
2021/04/14 13:33:41;;;;;;;12.63;3.80;;;;;;;9.56;47.46;101465.89;5041176;57;1138644;-78
2021/04/14 13:39:13;;;;;;;7.07;3.37;;;;;;;9.72;47.97;101469.34;5042925;57;1138517;-72
2021/04/14 13:44:49;;;;;;;2.70;1.60;;;;;;;9.77;47.00;101457.58;5041295;57;1136655;-78
2021/04/14 13:50:21;;;;;;;;;;;;;;;9.77;45.37;101462.86;5046688;57;1136493;-74
2021/04/14 13:55:46;;;;;;;3.97;2.00;;;;;;;9.70;45.87;101442.17;5056542;57;974624;-75
2021/04/14 14:01:16;;;;;;;5.70;2.40;;;;;;;9.76;47.07;101449.73;5041215;57;1134268;-72
2021/04/14 14:06:56;;;;;;;7.37;2.02;;;;;;;9.83;46.41;101441.81;5057459;57;1136795;-76
2021/04/14 14:12:25;;;;;;;9.27;2.93;;;;;;;9.66;45.22;101447.24;4950776;59;1136533;-71
2021/04/14 14:17:51;;;;;;;12.30;4.95;;;;;;;9.30;45.79;101444.50;5043516;57;1136476;-71
2021/04/14 14:23:20;;;;;;;12.77;5.67;;;;;;;9.18;47.26;101440.75;4999146;57;1136423;-78
2021/04/14 14:28:45;;;;;;;8.07;3.60;;;;;;;9.32;48.26;101440.46;5043110;57;1146098;-74
2021/04/14 14:34:13;;;;;;;7.47;2.83;;;;;;;9.57;48.24;101437.23;5040716;57;1134119;-74
2021/04/14 14:39:52;;;;;;;7.67;3.10;;;;;;;9.52;47.63;101439.66;5041063;57;1136368;-79
2021/04/14 14:45:45;;;;;;;2.07;1.10;;;;;;;9.39;47.61;101440.00;5043110;57;1134352;-74
2021/04/14 14:51:18;;;;;;;10.57;3.53;;;;;;;9.18;46.53;101439.44;5041112;57;1134509;-74
2021/04/14 14:57:12;;;;;;;4.17;2.85;;;;;;;8.92;47.76;101444.02;5035326;57;1136746;-76
2021/04/14 15:02:38;;;;;;;16.70;6.33;;;;;;;8.74;49.49;101439.77;5040772;57;1134378;-78
2021/04/14 15:08:04;;;;;;;7.23;2.40;;;;;;;8.74;49.49;101439.77;5040836;57;1136406;-76
2021/04/14 15:13:29;;;;;;;4.60;3.37;;;;;;;8.68;49.55;101448.03;5042906;57;1134531;-74
2021/04/14 15:18:55;;;;;;;11.95;5.67;;;;;;;8.67;50.16;101452.45;5041232;57;1134457;-74
2021/04/14 15:24:22;;;;;;;13.87;7.50;;;;;;;8.74;50.75;101451.16;5041076;57;1136421;-74
2021/04/14 15:29:46;;;;;;;13.33;6.37;;;;;;;8.71;50.79;101458.39;5013977;57;1136649;-75
2021/04/14 15:35:14;;;;;;;15.57;6.53;;;;;;;8.65;50.53;101463.55;4964857;58;1136612;-74
2021/04/14 15:40:40;;;;;;;8.55;2.75;;;;;;;8.58;49.58;101460.84;4964638;57;1136453;-73
2021/04/14 15:46:08;;;;;;;22.27;7.53;;;;;;;8.53;49.95;101465.54;4965325;57;1134106;-75
2021/04/14 15:51:34;;;;;;;33.30;15.13;;;;;;;8.44;50.08;101462.91;4965043;57;1136398;-75
2021/04/14 15:57:04;;;;;;;69.92;31.95;;;;;;;8.43;51.11;101469.58;4936950;57;1138829;-75
2021/04/14 16:02:31;;;;;;;53.67;25.27;;;;;;;8.32;50.92;101471.48;4828965;59;1138528;-74
2021/04/14 16:08:01;;;;;;;64.00;28.80;;;;;;;8.24;51.22;101480.23;4947482;57;1138659;-74
2021/04/14 16:13:26;;;;;;;61.60;25.57;;;;;;;8.22;51.08;101477.30;4964491;57;1138541;-74
2021/04/14 16:18:51;;;;;;;52.00;22.55;;;;;;;8.16;51.55;101472.33;4966741;58;1138485;-72
2021/04/14 16:24:16;;;;;;;61.40;26.77;;;;;;;8.17;51.40;101479.31;4935411;57;1138732;-72
2021/04/14 16:29:42;;;;;;;38.37;12.27;;;;;;;8.07;50.21;101475.84;4965376;58;1138795;-72
2021/04/14 16:35:09;;;;;;;37.03;15.47;;;;;;;7.94;50.58;101475.25;4996504;58;1138653;-70
2021/04/14 16:40:36;;;;;;;43.17;13.50;;;;;;;7.89;51.11;101473.30;4996764;58;1138700;-70
2021/04/14 16:46:06;;;;;;;42.48;12.05;;;;;;;7.80;51.00;101468.02;4997029;58;1138504;-70
2021/04/14 16:51:32;;;;;;;70.23;39.40;;;;;;;7.76;51.87;101479.20;4996775;58;1138867;-73
2021/04/14 16:56:57;;;;;;;64.13;19.80;;;;;;;7.72;51.96;101480.73;4997676;58;1138549;-70
2021/04/14 17:02:23;;;;;;;32.10;14.90;;;;;;;7.62;52.18;101479.51;4997924;58;1138747;-70
2021/04/14 17:07:50;;;;;;;24.03;10.20;;;;;;;7.57;52.17;101486.31;4997857;58;1143691;-74
2021/04/14 17:13:23;;;;;;;38.17;15.93;;;;;;;7.52;52.31;101483.05;4997248;58;1138461;-73
2021/04/14 17:18:43;;;;;;;33.93;14.80;;;;;;;7.48;52.97;101488.09;5000263;58;1138527;-73
2021/04/14 17:24:09;;;;;;;30.27;17.53;;;;;;;7.45;53.32;101490.02;5000279;58;1138567;-73
2021/04/14 17:29:35;;;;;;;62.73;44.20;;;;;;;7.38;53.82;101490.77;4997958;58;1138280;-72
2021/04/14 17:35:02;;;;;;;23.85;11.68;;;;;;;7.38;54.14;101492.08;4984184;58;1138350;-73
2021/04/14 17:40:31;;;;;;;31.73;13.80;;;;;;;7.42;54.37;101500.22;4926295;58;1138810;-71
2021/04/14 17:45:56;;;;;;;110.35;49.55;;;;;;;7.45;54.29;101502.71;4934885;59;1138532;-70
2021/04/14 17:51:22;;;;;;;38.70;10.03;;;;;;;7.47;54.56;101514.48;4906950;59;1140821;-73
2021/04/14 17:56:47;;;;;;;33.87;9.27;;;;;;;7.45;55.85;101518.50;4907503;59;1138760;-73
2021/04/14 18:02:12;;;;;;;75.20;26.57;;;;;;;7.35;56.49;101524.66;4905487;59;1136695;-72
2021/04/14 18:07:38;;;;;;;32.07;13.57;;;;;;;7.29;57.21;101528.92;4957272;58;1138485;-72
2021/04/14 18:13:03;;;;;;;11.30;5.13;;;;;;;7.26;57.49;101540.05;4994896;58;1138812;-73
2021/04/14 18:18:42;;;;;;;5.60;3.50;;;;;;;7.18;57.38;101546.15;4905995;59;1136361;-73
2021/04/14 18:24:07;;;;;;;4.07;2.93;;;;;;;6.92;58.74;101553.91;4905596;59;1134477;-69
2021/04/14 18:29:33;;;;;;;7.07;3.27;;;;;;;6.71;60.04;101561.02;4892025;59;1134538;-69
2021/04/14 18:34:59;;;;;;;6.12;3.08;;;;;;;6.56;61.27;101574.38;4842257;58;1134503;-73
2021/04/14 18:40:27;;;;;;;7.43;3.13;;;;;;;6.38;61.66;101567.75;4860029;59;1134320;-73
2021/04/14 18:45:54;;;;;;;4.42;2.08;;;;;;;6.27;61.81;101580.88;4860269;59;1143933;-73
2021/04/14 18:51:20;;;;;;;6.00;3.13;;;;;;;6.17;62.29;101574.31;4859887;59;1134194;-70
2021/04/14 18:56:46;;;;;;;6.30;3.27;;;;;;;6.19;62.91;101580.81;4859984;59;1134258;-72
2021/04/14 19:02:11;;;;;;;3.20;2.08;;;;;;;6.09;63.81;101580.82;4859654;59;1134602;-71
2021/04/14 19:07:38;;;;;;;5.13;2.27;;;;;;;5.97;64.59;101586.10;4860666;59;1134427;-71
2021/04/14 19:13:03;;;;;;;9.95;4.83;;;;;;;5.94;64.92;101586.26;4860724;59;1134399;-72
2021/04/14 19:18:31;;;;;;;16.37;5.63;;;;;;;5.93;65.14;101578.84;4860645;59;1134388;-71
2021/04/14 19:23:56;;;;;;;29.32;10.20;;;;;;;6.02;65.06;101579.36;4857656;59;1136704;-73
2021/04/14 19:29:23;;;;;;;32.40;11.60;;;;;;;6.12;65.06;101583.30;4858606;59;1140720;-72
2021/04/14 19:34:49;;;;;;;48.68;20.55;;;;;;;6.26;65.16;101571.28;4886936;59;1140923;-73
2021/04/14 19:40:18;;;;;;;28.80;11.53;;;;;;;6.33;64.99;101578.45;4809787;58;1138345;-73
2021/04/14 19:45:44;;;;;;;12.90;6.17;;;;;;;6.37;64.90;101583.13;4718638;61;1138326;-71
2021/04/14 19:51:09;;;;;;;11.33;5.83;;;;;;;6.36;64.88;101575.70;4678524;61;1136382;-73
2021/04/14 19:56:36;;;;;;;19.27;10.77;;;;;;;6.29;64.81;101581.66;4718141;61;1136225;-74
2021/04/14 20:02:02;;;;;;;41.73;17.97;;;;;;;6.19;64.96;101588.23;4738628;60;1138602;-73
2021/04/14 20:07:28;;;;;;;38.90;16.83;;;;;;;6.12;65.10;101584.61;4674390;60;1138518;-70
2021/04/14 20:12:53;;;;;;;32.60;14.90;;;;;;;6.05;65.33;101588.42;4673522;62;1138841;-75
2021/04/14 20:18:19;;;;;;;35.73;15.53;;;;;;;5.94;65.52;101587.57;4741604;60;1138668;-71
2021/04/14 20:23:45;;;;;;;42.47;19.03;;;;;;;5.90;65.66;101592.09;4694401;61;1140878;-73
2021/04/14 20:29:11;;;;;;;31.47;12.83;;;;;;;5.94;65.88;101589.73;4806631;60;1140737;-76
2021/04/14 20:34:37;;;;;;;12.97;5.80;;;;;;;5.94;65.83;101592.36;4791121;60;1138729;-75
2021/04/14 20:40:04;;;;;;;11.45;3.98;;;;;;;5.87;65.62;101593.94;4852269;58;1136676;-74
2021/04/14 20:45:29;;;;;;;41.40;13.90;;;;;;;5.83;64.95;101595.83;4847498;60;1137001;-73
2021/04/14 20:50:55;;;;;;;18.35;7.12;;;;;;;5.74;64.03;101595.36;4935997;59;1138516;-75
2021/04/14 20:56:21;;;;;;;13.03;4.53;;;;;;;5.71;63.62;101593.70;4927356;59;1136743;-75
2021/04/14 21:01:46;;;;;;;12.27;4.50;;;;;;;5.74;63.21;101595.36;4865465;59;1136591;-74
2021/04/14 21:07:14;;;;;;;22.33;5.93;;;;;;;5.68;62.27;101596.45;4989102;57;1136634;-77
2021/04/14 21:12:39;;;;;;;27.80;5.93;;;;;;;5.60;62.17;101598.54;5031141;57;1136521;-75
2021/04/14 21:18:05;;;;;;;8.88;3.20;;;;;;;5.57;61.93;101606.07;4976094;57;1136722;-77
2021/04/14 21:23:30;;;;;;;16.57;4.10;;;;;;;5.57;61.62;101592.95;4880534;58;1134377;-76
2021/04/14 21:28:55;;;;;;;9.68;4.28;;;;;;;5.50;61.41;101594.09;4915201;59;1136702;-71
2021/04/14 21:34:20;;;;;;;14.70;5.23;;;;;;;5.51;61.51;101593.64;4914646;59;1134559;-75
2021/04/14 21:39:45;;;;;;;5.00;2.93;;;;;;;5.46;61.13;101592.53;4946286;57;1136628;-76
2021/04/14 21:45:11;;;;;;;6.57;2.83;;;;;;;5.44;61.32;101585.63;4998462;57;1134371;-76
2021/04/14 21:50:37;;;;;;;8.50;3.10;;;;;;;5.39;60.82;101590.19;4998341;58;1134395;-73
2021/04/14 21:56:03;;;;;;;13.23;4.27;;;;;;;5.36;61.18;101595.09;4998685;57;1134419;-75
2021/04/14 22:01:31;;;;;;;7.37;3.30;;;;;;;5.35;61.16;101588.13;4998275;58;1136456;-69
2021/04/14 22:06:55;;;;;;;9.83;4.17;;;;;;;5.36;61.12;101587.68;4998835;58;1134885;-71
2021/04/14 22:12:20;;;;;;;16.47;4.10;;;;;;;5.33;61.06;101583.44;4998581;58;1134608;-72
2021/04/14 22:17:46;;;;;;;11.10;3.52;;;;;;;5.25;61.01;101590.73;4998298;58;1136587;-73
2021/04/14 22:23:13;;;;;;;10.20;3.60;;;;;;;5.24;61.34;101590.33;4998240;58;1136428;-74
2021/04/14 22:28:39;;;;;;;4.17;2.33;;;;;;;5.23;61.27;101591.23;4997999;58;1136555;-71
2021/04/14 22:34:04;;;;;;;2.75;1.72;;;;;;;5.21;61.38;101589.13;4998434;58;1134495;-72
2021/04/14 22:39:30;;;;;;;6.33;2.50;;;;;;;5.23;61.55;101592.55;4998449;58;1134616;-73
2021/04/14 22:44:55;;;;;;;6.17;1.85;;;;;;;5.16;61.52;101585.39;4984550;58;1134440;-74
2021/04/14 22:50:24;;;;;;;3.00;1.93;;;;;;;5.17;61.71;101588.41;4984706;58;1134553;-71
2021/04/14 22:55:50;;;;;;;2.70;1.63;;;;;;;5.16;61.98;101588.47;4984371;58;1134288;-71
2021/04/14 23:01:17;;;;;;;3.67;1.42;;;;;;;5.06;62.17;101597.58;4983910;58;1134532;-74
2021/04/14 23:06:42;;;;;;;4.77;2.30;;;;;;;4.97;62.22;101593.55;4984151;58;1134463;-70
2021/04/14 23:12:08;;;;;;;6.85;2.00;;;;;;;4.92;62.42;101594.16;4984639;58;1134553;-73
2021/04/14 23:17:35;;;;;;;3.97;2.07;;;;;;;4.93;62.81;101595.41;4984503;58;1134421;-70
2021/04/14 23:23:00;;;;;;;5.78;1.98;;;;;;;4.94;62.90;101587.09;4984453;58;1134407;-72
2021/04/14 23:28:26;;;;;;;9.17;2.77;;;;;;;4.87;63.05;101581.70;4984177;58;1134659;-72
2021/04/14 23:33:56;;;;;;;7.17;3.03;;;;;;;4.82;63.50;101583.17;4984643;58;1134362;-71
2021/04/14 23:39:18;;;;;;;3.43;2.27;;;;;;;4.74;63.60;101581.27;4984961;58;1134280;-69
2021/04/14 23:44:43;;;;;;;13.40;3.30;;;;;;;4.71;63.71;101579.23;4993944;58;1134456;-71
2021/04/14 23:50:28;;;;;;;23.92;5.53;;;;;;;4.79;64.01;101570.62;4998224;58;1136576;-73
2021/04/14 23:55:55;;;;;;;31.87;6.67;;;;;;;4.78;64.00;101568.46;4989262;58;1136734;-73
